createdAt,value
2016-03-31T00:00:01.223Z,0
2016-03-31T00:01:01.210Z,0
2016-03-31T00:02:01.243Z,0
2016-03-31T00:03:01.262Z,0
2016-03-31T00:04:01.281Z,0
2016-03-31T00:05:01.299Z,0
2016-03-31T00:06:01.317Z,0
2016-03-31T00:07:01.319Z,0
2016-03-31T00:08:01.338Z,0
2016-03-31T00:09:01.341Z,0
2016-03-31T00:10:01.390Z,0
2016-03-31T00:11:01.361Z,0
2016-03-31T00:12:01.395Z,0
2016-03-31T00:13:01.414Z,0
2016-03-31T00:14:01.464Z,0
2016-03-31T00:15:01.451Z,0
2016-03-31T00:16:01.485Z,0
2016-03-31T00:17:01.487Z,0
2016-03-31T00:18:01.521Z,0
2016-03-31T00:19:01.506Z,0
2016-03-31T00:20:04.222Z,0
2016-03-31T00:21:01.538Z,0
2016-03-31T00:22:01.571Z,0
2016-03-31T00:23:01.588Z,0
2016-03-31T00:24:01.592Z,0
2016-03-31T00:25:01.626Z,0
2016-03-31T00:26:01.629Z,0
2016-03-31T00:27:01.632Z,0
2016-03-31T00:28:01.681Z,0
2016-03-31T00:29:01.715Z,0
2016-03-31T00:30:01.687Z,0
2016-03-31T00:31:01.725Z,0
2016-03-31T00:32:01.744Z,0
2016-03-31T00:33:01.734Z,0
2016-03-31T00:34:01.767Z,0
2016-03-31T00:35:01.770Z,0
2016-03-31T00:36:01.820Z,0
2016-03-31T00:37:01.823Z,0
2016-03-31T00:38:01.809Z,0
2016-03-31T00:39:01.842Z,0
2016-03-31T00:40:01.846Z,0
2016-03-31T00:41:01.864Z,0
2016-03-31T00:42:01.898Z,0
2016-03-31T00:43:01.886Z,0
2016-03-31T00:44:01.919Z,0
2016-03-31T00:45:01.938Z,0
2016-03-31T00:46:01.956Z,0
2016-03-31T00:47:01.974Z,0
2016-03-31T00:48:01.977Z,0
2016-03-31T00:49:02.027Z,0
2016-03-31T00:50:02.044Z,0
2016-03-31T00:51:02.064Z,0
2016-03-31T00:52:02.082Z,0
2016-03-31T00:53:02.069Z,0
2016-03-31T00:54:02.087Z,0
2016-03-31T00:55:02.105Z,0
2016-03-31T00:56:02.138Z,0
2016-03-31T00:57:02.141Z,0
2016-03-31T00:58:02.176Z,0
2016-03-31T00:59:02.163Z,0
2016-03-31T01:00:02.181Z,0
2016-03-31T01:01:02.168Z,0
2016-03-31T01:02:02.249Z,0
2016-03-31T01:03:02.236Z,0
2016-03-31T01:04:02.254Z,0
2016-03-31T01:05:02.273Z,0
2016-03-31T01:06:02.275Z,0
2016-03-31T01:07:02.278Z,0
2016-03-31T01:08:02.296Z,0
2016-03-31T01:09:02.345Z,0
2016-03-31T01:10:02.334Z,0
2016-03-31T01:11:02.351Z,0
2016-03-31T01:12:02.370Z,0
2016-03-31T01:13:02.388Z,0
2016-03-31T01:14:02.406Z,0
2016-03-31T01:15:02.425Z,0
2016-03-31T01:16:02.442Z,0
2016-03-31T01:17:02.461Z,0
2016-03-31T01:18:02.464Z,0
2016-03-31T01:19:02.497Z,0
2016-03-31T01:20:02.516Z,0
2016-03-31T01:21:02.549Z,0
2016-03-31T01:22:02.349Z,0
2016-03-31T01:23:02.555Z,0
2016-03-31T01:24:02.558Z,0
2016-03-31T01:25:02.591Z,0
2016-03-31T01:26:02.594Z,0
2016-03-31T01:27:02.675Z,0
2016-03-31T01:28:02.615Z,0
2016-03-31T01:29:02.649Z,0
2016-03-31T01:30:02.651Z,0
2016-03-31T01:31:02.654Z,0
2016-03-31T01:32:02.689Z,0
2016-03-31T01:33:02.692Z,0
2016-03-31T01:34:02.850Z,0
2016-03-31T01:35:02.728Z,0
2016-03-31T01:36:02.778Z,0
2016-03-31T01:37:02.764Z,0
2016-03-31T01:38:02.798Z,0
2016-03-31T01:39:02.802Z,0
2016-03-31T01:40:02.836Z,0
2016-03-31T01:41:02.822Z,0
2016-03-31T01:42:02.873Z,0
2016-03-31T01:43:02.859Z,0
2016-03-31T01:44:02.909Z,0
2016-03-31T01:45:02.880Z,0
2016-03-31T01:46:02.930Z,0
2016-03-31T01:47:02.917Z,0
2016-03-31T01:48:02.778Z,0
2016-03-31T01:49:02.953Z,0
2016-03-31T01:50:03.003Z,0
2016-03-31T01:51:02.974Z,0
2016-03-31T01:52:03.024Z,0
2016-03-31T01:53:03.027Z,0
2016-03-31T01:54:03.044Z,0
2016-03-31T01:55:03.126Z,0
2016-03-31T01:56:03.097Z,0
2016-03-31T01:57:03.084Z,0
2016-03-31T01:58:03.087Z,0
2016-03-31T01:59:03.105Z,0
2016-03-31T02:00:03.124Z,0
2016-03-31T02:01:03.126Z,0
2016-03-31T02:02:03.176Z,0
2016-03-31T02:03:03.163Z,0
2016-03-31T02:04:03.196Z,0
2016-03-31T02:05:03.199Z,0
2016-03-31T02:06:03.202Z,0
2016-03-31T02:07:03.220Z,0
2016-03-31T02:08:03.263Z,0
2016-03-31T02:09:03.266Z,0
2016-03-31T02:10:03.284Z,0
2016-03-31T02:11:03.288Z,0
2016-03-31T02:12:03.305Z,0
2016-03-31T02:13:03.340Z,0
2016-03-31T02:14:03.357Z,0
2016-03-31T02:15:03.345Z,0
2016-03-31T02:16:03.425Z,0
2016-03-31T02:17:03.381Z,0
2016-03-31T02:18:03.387Z,0
2016-03-31T02:19:03.405Z,0
2016-03-31T02:20:03.424Z,0
2016-03-31T02:21:03.442Z,0
2016-03-31T02:22:03.445Z,0
2016-03-31T02:23:03.462Z,0
2016-03-31T02:24:03.512Z,0
2016-03-31T02:25:03.514Z,0
2016-03-31T02:26:03.533Z,0
2016-03-31T02:27:03.520Z,0
2016-03-31T02:28:03.585Z,0
2016-03-31T02:29:03.541Z,0
2016-03-31T02:30:03.575Z,0
2016-03-31T02:31:03.593Z,0
2016-03-31T02:32:03.611Z,0
2016-03-31T02:33:03.646Z,0
2016-03-31T02:34:03.664Z,0
2016-03-31T02:35:03.713Z,0
2016-03-31T02:36:03.669Z,0
2016-03-31T02:37:03.672Z,0
2016-03-31T02:38:03.705Z,0
2016-03-31T02:39:03.724Z,0
2016-03-31T02:40:03.711Z,0
2016-03-31T02:41:03.729Z,0
2016-03-31T02:42:03.030Z,0
2016-03-31T02:43:03.766Z,0
2016-03-31T02:44:03.785Z,0
2016-03-31T02:45:03.803Z,0
2016-03-31T02:46:03.822Z,0
2016-03-31T02:47:03.855Z,0
2016-03-31T02:48:03.842Z,0
2016-03-31T02:49:03.095Z,0
2016-03-31T02:50:03.879Z,0
2016-03-31T02:51:03.897Z,0
2016-03-31T02:52:03.901Z,0
2016-03-31T02:53:03.934Z,0
2016-03-31T02:54:03.937Z,0
2016-03-31T02:55:03.955Z,0
2016-03-31T02:56:03.958Z,0
2016-03-31T02:57:04.007Z,0
2016-03-31T02:58:03.978Z,0
2016-03-31T02:59:04.044Z,0
2016-03-31T03:00:04.015Z,0
2016-03-31T03:01:04.080Z,0
2016-03-31T03:02:04.068Z,0
2016-03-31T03:03:04.086Z,0
2016-03-31T03:04:04.105Z,0
2016-03-31T03:05:04.091Z,0
2016-03-31T03:06:04.125Z,0
2016-03-31T03:07:04.128Z,0
2016-03-31T03:08:04.183Z,0
2016-03-31T03:09:04.128Z,0
2016-03-31T03:10:04.177Z,0
2016-03-31T03:11:04.150Z,0
2016-03-31T03:12:04.183Z,0
2016-03-31T03:13:04.202Z,0
2016-03-31T03:14:04.236Z,0
2016-03-31T03:15:04.254Z,0
2016-03-31T03:16:04.272Z,0
2016-03-31T03:17:04.275Z,0
2016-03-31T03:18:04.278Z,0
2016-03-31T03:19:04.280Z,0
2016-03-31T03:20:04.298Z,0
2016-03-31T03:21:04.333Z,0
2016-03-31T03:22:04.335Z,0
2016-03-31T03:23:04.401Z,0
2016-03-31T03:24:04.388Z,0
2016-03-31T03:25:04.374Z,0
2016-03-31T03:26:04.252Z,0
2016-03-31T03:27:04.411Z,0
2016-03-31T03:28:04.415Z,0
2016-03-31T03:29:04.463Z,0
2016-03-31T03:30:04.450Z,0
2016-03-31T03:31:04.501Z,0
2016-03-31T03:32:04.487Z,0
2016-03-31T03:33:04.506Z,0
2016-03-31T03:34:04.509Z,0
2016-03-31T03:35:04.542Z,0
2016-03-31T03:36:04.575Z,0
2016-03-31T03:37:04.563Z,0
2016-03-31T03:38:04.612Z,0
2016-03-31T03:39:04.630Z,0
2016-03-31T03:40:04.617Z,0
2016-03-31T03:41:04.667Z,0
2016-03-31T03:42:04.623Z,0
2016-03-31T03:43:04.657Z,0
2016-03-31T03:44:04.676Z,0
2016-03-31T03:45:04.756Z,0
2016-03-31T03:46:04.696Z,0
2016-03-31T03:47:04.731Z,0
2016-03-31T03:48:04.733Z,0
2016-03-31T03:49:04.736Z,0
2016-03-31T03:50:04.785Z,0
2016-03-31T03:51:04.772Z,0
2016-03-31T03:52:04.807Z,0
2016-03-31T03:53:04.810Z,0
2016-03-31T03:54:04.844Z,0
2016-03-31T03:55:04.846Z,0
2016-03-31T03:56:04.864Z,0
2016-03-31T03:57:04.868Z,0
2016-03-31T03:58:04.901Z,0
2016-03-31T03:59:04.904Z,0
2016-03-31T04:00:04.968Z,0
2016-03-31T04:01:04.924Z,0
2016-03-31T04:02:04.942Z,0
2016-03-31T04:03:04.961Z,0
2016-03-31T04:04:04.995Z,0
2016-03-31T04:05:04.998Z,0
2016-03-31T04:06:05.031Z,0
2016-03-31T04:07:05.050Z,0
2016-03-31T04:08:05.037Z,0
2016-03-31T04:09:05.055Z,0
2016-03-31T04:10:05.073Z,0
2016-03-31T04:11:05.092Z,0
2016-03-31T04:12:05.121Z,0
2016-03-31T04:13:05.790Z,0
2016-03-31T04:14:05.321Z,0
2016-03-31T04:15:05.803Z,0
2016-03-31T04:16:05.227Z,0
2016-03-31T04:17:05.136Z,0
2016-03-31T04:18:05.154Z,0
2016-03-31T04:19:05.205Z,0
2016-03-31T04:20:05.191Z,0
2016-03-31T04:21:05.240Z,0
2016-03-31T04:22:05.212Z,0
2016-03-31T04:23:05.293Z,0
2016-03-31T04:24:05.265Z,0
2016-03-31T04:25:05.298Z,0
2016-03-31T04:26:05.339Z,0
2016-03-31T04:27:05.440Z,0
2016-03-31T04:28:05.496Z,0
2016-03-31T04:29:05.582Z,4
2016-03-31T04:30:05.642Z,4
2016-03-31T04:31:05.647Z,4
2016-03-31T04:32:05.685Z,0
2016-03-31T04:33:05.737Z,0
2016-03-31T04:34:05.774Z,4
2016-03-31T04:35:05.777Z,4
2016-03-31T04:36:05.848Z,4
2016-03-31T04:37:05.873Z,4
2016-03-31T04:38:05.851Z,8
2016-03-31T04:39:05.875Z,4
2016-03-31T04:40:05.915Z,8
2016-03-31T04:41:05.888Z,8
2016-03-31T04:42:05.957Z,12
2016-03-31T04:43:05.945Z,8
2016-03-31T04:44:05.981Z,12
2016-03-31T04:45:05.986Z,16
2016-03-31T04:46:06.006Z,16
2016-03-31T04:47:06.009Z,20
2016-03-31T04:48:06.045Z,20
2016-03-31T04:49:06.048Z,20
2016-03-31T04:50:06.084Z,24
2016-03-31T04:51:06.118Z,28
2016-03-31T04:52:06.105Z,28
2016-03-31T04:53:06.124Z,32
2016-03-31T04:54:06.127Z,36
2016-03-31T04:55:06.161Z,40
2016-03-31T04:56:06.023Z,44
2016-03-31T04:57:06.214Z,48
2016-03-31T04:58:06.186Z,52
2016-03-31T04:59:06.297Z,60
2016-03-31T05:00:06.222Z,64
2016-03-31T05:01:06.256Z,68
2016-03-31T05:02:06.258Z,76
2016-03-31T05:03:06.200Z,84
2016-03-31T05:04:06.295Z,88
2016-03-31T05:05:06.330Z,96
2016-03-31T05:06:06.317Z,104
2016-03-31T05:07:06.336Z,108
2016-03-31T05:08:06.353Z,120
2016-03-31T05:09:06.372Z,128
2016-03-31T05:10:06.374Z,136
2016-03-31T05:11:06.377Z,148
2016-03-31T05:12:06.427Z,168
2016-03-31T05:13:06.476Z,188
2016-03-31T05:14:06.463Z,212
2016-03-31T05:15:06.450Z,244
2016-03-31T05:16:06.468Z,272
2016-03-31T05:17:06.503Z,296
2016-03-31T05:18:06.521Z,312
2016-03-31T05:19:06.539Z,324
2016-03-31T05:20:06.543Z,344
2016-03-31T05:21:06.560Z,364
2016-03-31T05:22:06.579Z,384
2016-03-31T05:23:06.581Z,396
2016-03-31T05:24:06.599Z,408
2016-03-31T05:25:06.618Z,424
2016-03-31T05:26:06.652Z,448
2016-03-31T05:27:06.655Z,468
2016-03-31T05:28:06.673Z,492
2016-03-31T05:29:06.691Z,516
2016-03-31T05:30:06.710Z,536
2016-03-31T05:31:06.712Z,552
2016-03-31T05:32:06.777Z,572
2016-03-31T05:33:06.764Z,600
2016-03-31T05:34:06.783Z,640
2016-03-31T05:35:06.816Z,672
2016-03-31T05:36:06.053Z,704
2016-03-31T05:37:06.822Z,732
2016-03-31T05:38:06.855Z,756
2016-03-31T05:39:06.844Z,784
2016-03-31T05:40:06.861Z,812
2016-03-31T05:41:06.880Z,852
2016-03-31T05:42:06.897Z,888
2016-03-31T05:43:06.900Z,920
2016-03-31T05:44:06.934Z,956
2016-03-31T05:45:06.938Z,984
2016-03-31T05:46:06.955Z,1012
2016-03-31T05:47:06.974Z,1028
2016-03-31T05:48:06.992Z,1044
2016-03-31T05:49:07.042Z,1060
2016-03-31T05:50:07.029Z,1084
2016-03-31T05:51:07.046Z,1108
2016-03-31T05:52:07.082Z,1164
2016-03-31T05:53:07.068Z,1220
2016-03-31T05:54:07.087Z,1272
2016-03-31T05:55:07.105Z,1344
2016-03-31T05:56:07.123Z,1412
2016-03-31T05:57:07.173Z,1452
2016-03-31T05:58:07.175Z,1464
2016-03-31T05:59:07.178Z,1456
2016-03-31T06:00:07.180Z,1436
2016-03-31T06:01:07.215Z,1424
2016-03-31T06:02:07.248Z,1424
2016-03-31T06:03:07.236Z,1432
2016-03-31T06:04:07.254Z,1460
2016-03-31T06:05:07.272Z,1480
2016-03-31T06:06:07.275Z,1500
2016-03-31T06:07:07.309Z,1516
2016-03-31T06:08:07.311Z,1524
2016-03-31T06:09:07.330Z,1528
2016-03-31T06:10:07.364Z,1540
2016-03-31T06:11:07.367Z,1588
2016-03-31T06:12:07.400Z,1644
2016-03-31T06:13:07.419Z,1712
2016-03-31T06:14:07.406Z,1788
2016-03-31T06:15:07.283Z,1864
2016-03-31T06:16:07.458Z,1936
2016-03-31T06:17:07.477Z,1992
2016-03-31T06:18:07.494Z,2068
2016-03-31T06:19:07.544Z,2312
2016-03-31T06:20:07.531Z,2828
2016-03-31T06:21:07.534Z,3580
2016-03-31T06:22:07.537Z,3680
2016-03-31T06:23:07.571Z,3792
2016-03-31T06:24:07.573Z,3572
2016-03-31T06:25:07.607Z,3332
2016-03-31T06:26:07.610Z,3308
2016-03-31T06:27:07.676Z,3624
2016-03-31T06:28:07.646Z,4256
2016-03-31T06:29:07.681Z,4176
2016-03-31T06:30:07.684Z,4472
2016-03-31T06:31:07.717Z,3916
2016-03-31T06:32:07.704Z,3900
2016-03-31T06:33:07.753Z,4000
2016-03-31T06:34:07.742Z,3720
2016-03-31T06:35:07.759Z,3448
2016-03-31T06:36:07.777Z,3364
2016-03-31T06:37:07.812Z,3384
2016-03-31T06:38:07.830Z,3540
2016-03-31T06:39:07.864Z,3732
2016-03-31T06:40:07.836Z,3616
2016-03-31T06:41:07.885Z,3596
2016-03-31T06:42:07.888Z,3464
2016-03-31T06:43:07.936Z,3548
2016-03-31T06:44:07.924Z,3484
2016-03-31T06:45:07.958Z,3304
2016-03-31T06:46:07.944Z,3260
2016-03-31T06:47:07.995Z,3364
2016-03-31T06:48:07.997Z,3520
2016-03-31T06:49:08.031Z,3496
2016-03-31T06:50:08.035Z,3588
2016-03-31T06:51:08.052Z,3728
2016-03-31T06:52:08.070Z,3924
2016-03-31T06:53:08.105Z,3912
2016-03-31T06:54:08.107Z,3688
2016-03-31T06:55:08.157Z,4004
2016-03-31T06:56:08.144Z,3660
2016-03-31T06:57:08.178Z,3548
2016-03-31T06:58:08.196Z,3692
2016-03-31T06:59:08.198Z,3732
2016-03-31T07:00:08.607Z,3744
2016-03-31T07:01:08.235Z,3804
2016-03-31T07:02:08.269Z,3828
2016-03-31T07:03:08.288Z,3980
2016-03-31T07:04:08.306Z,4120
2016-03-31T07:05:08.308Z,3956
2016-03-31T07:06:08.343Z,3892
2016-03-31T07:07:08.455Z,3984
2016-03-31T07:08:08.369Z,4324
2016-03-31T07:09:08.386Z,4644
2016-03-31T07:10:08.405Z,5128
2016-03-31T07:11:08.455Z,5536
2016-03-31T07:12:08.441Z,4952
2016-03-31T07:13:08.475Z,5052
2016-03-31T07:14:08.494Z,4252
2016-03-31T07:15:08.496Z,4156
2016-03-31T07:16:08.531Z,6248
2016-03-31T07:17:08.580Z,16224
2016-03-31T07:18:08.567Z,22560
2016-03-31T07:19:08.586Z,16736
2016-03-31T07:20:08.604Z,9492
2016-03-31T07:21:08.637Z,12476
2016-03-31T07:22:08.656Z,20416
2016-03-31T07:23:08.660Z,33632
2016-03-31T07:24:08.662Z,22592
2016-03-31T07:25:08.695Z,18528
2016-03-31T07:26:08.729Z,16128
2016-03-31T07:27:08.748Z,14260
2016-03-31T07:28:08.765Z,20512
2016-03-31T07:29:08.784Z,26208
2016-03-31T07:30:08.787Z,32352
2016-03-31T07:31:08.820Z,31744
2016-03-31T07:32:08.839Z,36064
2016-03-31T07:33:08.889Z,43136
2016-03-31T07:34:08.892Z,46752
2016-03-31T07:35:08.909Z,32960
2016-03-31T07:36:08.912Z,18112
2016-03-31T07:37:08.947Z,23840
2016-03-31T07:38:08.980Z,40096
2016-03-31T07:39:08.999Z,58144
2016-03-31T07:40:09.017Z,40096
2016-03-31T07:41:09.035Z,20416
2016-03-31T07:42:09.085Z,12484
2016-03-31T07:43:09.088Z,13488
2016-03-31T07:44:09.122Z,13292
2016-03-31T07:45:09.202Z,10868
2016-03-31T07:46:09.143Z,7560
2016-03-31T07:47:09.785Z,5888
2016-03-31T07:48:09.195Z,5288
2016-03-31T07:49:09.229Z,5420
2016-03-31T07:50:09.232Z,5572
2016-03-31T07:51:09.297Z,5624
2016-03-31T07:52:09.315Z,5716
2016-03-31T07:53:09.333Z,5736
2016-03-31T07:54:09.335Z,5688
2016-03-31T07:55:09.370Z,6448
2016-03-31T07:56:09.435Z,19808
2016-03-31T07:57:09.468Z,23552
2016-03-31T07:58:09.456Z,29024
2016-03-31T07:59:09.474Z,46048
2016-03-31T08:00:09.524Z,56512
2016-03-31T08:01:09.558Z,47008
2016-03-31T08:02:09.561Z,19136
2016-03-31T08:03:09.578Z,11252
2016-03-31T08:04:09.612Z,25280
2016-03-31T08:05:09.678Z,30272
2016-03-31T08:06:09.681Z,42784
2016-03-31T08:07:09.856Z,44320
2016-03-31T08:08:09.733Z,57664
2016-03-31T08:09:09.751Z,65696
2016-03-31T08:10:09.786Z,51872
2016-03-31T08:11:09.804Z,36224
2016-03-31T08:12:09.853Z,24192
2016-03-31T08:13:09.903Z,18464
2016-03-31T08:14:09.905Z,14080
2016-03-31T08:15:09.939Z,26656
2016-03-31T08:16:09.957Z,32512
2016-03-31T08:17:09.977Z,22816
2016-03-31T08:18:10.010Z,19776
2016-03-31T08:19:10.044Z,22432
2016-03-31T08:20:10.077Z,21824
2016-03-31T08:21:10.127Z,20704
2016-03-31T08:22:10.146Z,22688
2016-03-31T08:23:10.163Z,29696
2016-03-31T08:24:10.198Z,27072
2016-03-31T08:25:10.231Z,42464
2016-03-31T08:26:10.250Z,36480
2016-03-31T08:27:10.284Z,35872
2016-03-31T08:28:10.333Z,48320
2016-03-31T08:29:10.337Z,52704
2016-03-31T08:30:10.401Z,44768
2016-03-31T08:31:10.420Z,21600
2016-03-31T08:32:10.453Z,19168
2016-03-31T08:33:10.472Z,40960
2016-03-31T08:34:10.506Z,52032
2016-03-31T08:35:10.556Z,34944
2016-03-31T08:36:10.589Z,17408
2016-03-31T08:37:10.655Z,13800
2016-03-31T08:38:10.814Z,13672
2016-03-31T08:39:10.660Z,10780
2016-03-31T08:40:10.695Z,10624
2016-03-31T08:41:10.728Z,9952
2016-03-31T08:42:10.747Z,10536
2016-03-31T08:43:10.781Z,10476
2016-03-31T08:44:10.845Z,11264
2016-03-31T08:45:10.880Z,9588
2016-03-31T08:46:10.945Z,9004
2016-03-31T08:47:10.932Z,11560
2016-03-31T08:48:10.950Z,11700
2016-03-31T08:49:11.000Z,10972
2016-03-31T08:50:11.033Z,11204
2016-03-31T08:51:11.067Z,10740
2016-03-31T08:52:11.085Z,12132
2016-03-31T08:53:11.135Z,15104
2016-03-31T08:54:11.169Z,14592
2016-03-31T08:55:11.218Z,13960
2016-03-31T08:56:11.206Z,14752
2016-03-31T08:57:11.255Z,14752
2016-03-31T08:58:11.290Z,16352
2016-03-31T08:59:11.323Z,15072
2016-03-31T09:00:11.357Z,14720
2016-03-31T09:01:11.407Z,17088
2016-03-31T09:02:11.473Z,15392
2016-03-31T09:03:11.459Z,34016
2016-03-31T09:04:11.508Z,48544
2016-03-31T09:05:11.543Z,40320
2016-03-31T09:06:11.561Z,44064
2016-03-31T09:07:11.594Z,35744
2016-03-31T09:08:11.644Z,13212
2016-03-31T09:09:11.694Z,15904
2016-03-31T09:10:11.744Z,15488
2016-03-31T09:11:11.746Z,16576
2016-03-31T09:12:11.764Z,14944
2016-03-31T09:13:11.798Z,12340
2016-03-31T09:14:11.863Z,11024
2016-03-31T09:15:11.866Z,9196
2016-03-31T09:16:11.916Z,6576
2016-03-31T09:17:11.934Z,5400
2016-03-31T09:18:11.984Z,5144
2016-03-31T09:19:12.018Z,5060
2016-03-31T09:20:12.036Z,4900
2016-03-31T09:21:12.274Z,4820
2016-03-31T09:22:12.104Z,4804
2016-03-31T09:23:12.154Z,4824
2016-03-31T09:24:12.156Z,7216
2016-03-31T09:25:12.050Z,17984
2016-03-31T09:26:12.271Z,25536
2016-03-31T09:27:12.274Z,29056
2016-03-31T09:28:12.324Z,27744
2016-03-31T09:29:12.357Z,32288
2016-03-31T09:30:12.376Z,37120
2016-03-31T09:31:12.440Z,33696
2016-03-31T09:32:12.443Z,22304
2016-03-31T09:33:12.509Z,15168
2016-03-31T09:34:12.559Z,8596
2016-03-31T09:35:12.545Z,10136
2016-03-31T09:36:12.564Z,17536
2016-03-31T09:37:12.613Z,18400
2016-03-31T09:38:12.647Z,16352
2016-03-31T09:39:12.681Z,11300
2016-03-31T09:40:12.746Z,8204
2016-03-31T09:41:12.734Z,7276
2016-03-31T09:42:12.783Z,6288
2016-03-31T09:43:12.817Z,6904
2016-03-31T09:44:12.867Z,6836
2016-03-31T09:45:12.870Z,6048
2016-03-31T09:46:12.934Z,6680
2016-03-31T09:47:12.936Z,7468
2016-03-31T09:48:13.049Z,8168
2016-03-31T09:49:13.019Z,7564
2016-03-31T09:50:13.038Z,6500
2016-03-31T09:51:13.088Z,5880
2016-03-31T09:52:13.138Z,5564
2016-03-31T09:53:13.156Z,5864
2016-03-31T09:54:13.222Z,6108
2016-03-31T09:55:13.208Z,6528
2016-03-31T09:56:13.102Z,6696
2016-03-31T09:57:13.277Z,6664
2016-03-31T09:58:13.310Z,6620
2016-03-31T09:59:13.360Z,7100
2016-03-31T10:00:13.378Z,7464
2016-03-31T10:01:13.427Z,7280
2016-03-31T10:02:13.462Z,7700
2016-03-31T10:03:13.543Z,6968
2016-03-31T10:04:13.546Z,6260
2016-03-31T10:05:13.563Z,6020
2016-03-31T10:06:13.597Z,5760
2016-03-31T10:07:13.631Z,5600
2016-03-31T10:08:13.665Z,5848
2016-03-31T10:09:13.699Z,6276
2016-03-31T10:10:13.624Z,6720
2016-03-31T10:11:13.814Z,6940
2016-03-31T10:12:13.785Z,6592
2016-03-31T10:13:13.834Z,6176
2016-03-31T10:14:13.869Z,6076
2016-03-31T10:15:13.919Z,6052
2016-03-31T10:16:13.953Z,6140
2016-03-31T10:17:13.986Z,6812
2016-03-31T10:18:14.098Z,7532
2016-03-31T10:19:14.055Z,7980
2016-03-31T10:20:14.103Z,7600
2016-03-31T10:21:14.107Z,7064
2016-03-31T10:22:14.156Z,4592
2016-03-31T10:23:14.191Z,4536
2016-03-31T10:24:14.224Z,7208
2016-03-31T10:25:14.258Z,7548
2016-03-31T10:26:14.292Z,6028
2016-03-31T10:27:14.326Z,6644
2016-03-31T10:28:14.391Z,6160
2016-03-31T10:29:14.409Z,6160
2016-03-31T10:30:14.443Z,6432
2016-03-31T10:31:14.477Z,6384
2016-03-31T10:32:14.511Z,5916
2016-03-31T10:33:14.842Z,5432
2016-03-31T10:34:14.579Z,5240
2016-03-31T10:35:14.472Z,5140
2016-03-31T10:36:14.646Z,4956
2016-03-31T10:37:14.696Z,5516
2016-03-31T10:38:14.746Z,5616
2016-03-31T10:39:14.780Z,5364
2016-03-31T10:40:14.782Z,6032
2016-03-31T10:41:14.848Z,6412
2016-03-31T10:42:14.850Z,5216
2016-03-31T10:43:14.916Z,4136
2016-03-31T10:44:14.918Z,5240
2016-03-31T10:45:14.984Z,4768
2016-03-31T10:46:15.033Z,4716
2016-03-31T10:47:15.067Z,4880
2016-03-31T10:48:15.008Z,4408
2016-03-31T10:49:14.963Z,5480
2016-03-31T10:50:15.138Z,5636
2016-03-31T10:51:15.187Z,6156
2016-03-31T10:52:15.237Z,5980
2016-03-31T10:53:15.239Z,4736
2016-03-31T10:54:15.289Z,6592
2016-03-31T10:55:15.307Z,6904
2016-03-31T10:56:15.341Z,6012
2016-03-31T10:57:15.391Z,6148
2016-03-31T10:58:15.441Z,5700
2016-03-31T10:59:15.303Z,5392
2016-03-31T11:00:15.508Z,5580
2016-03-31T11:01:15.527Z,5484
2016-03-31T11:02:15.577Z,6332
2016-03-31T11:03:15.641Z,5556
2016-03-31T11:04:15.613Z,5496
2016-03-31T11:05:15.647Z,7068
2016-03-31T11:06:15.681Z,7088
2016-03-31T11:07:15.571Z,7000
2016-03-31T11:08:15.746Z,6684
2016-03-31T11:09:15.814Z,6012
2016-03-31T11:10:15.817Z,6340
2016-03-31T11:11:15.866Z,6260
2016-03-31T11:12:15.915Z,6216
2016-03-31T11:13:15.918Z,6488
2016-03-31T11:14:15.984Z,6388
2016-03-31T11:15:16.002Z,6320
2016-03-31T11:16:16.051Z,6100
2016-03-31T11:17:16.117Z,5288
2016-03-31T11:18:16.182Z,5252
2016-03-31T11:19:16.169Z,5620
2016-03-31T11:20:16.172Z,5524
2016-03-31T11:21:16.206Z,4888
2016-03-31T11:22:16.255Z,4628
2016-03-31T11:23:16.273Z,4264
2016-03-31T11:24:16.339Z,4708
2016-03-31T11:25:16.342Z,4664
2016-03-31T11:26:16.375Z,4908
2016-03-31T11:27:16.409Z,3572
2016-03-31T11:28:16.443Z,3284
2016-03-31T11:29:16.477Z,4028
2016-03-31T11:30:16.510Z,3812
2016-03-31T11:31:16.576Z,3748
2016-03-31T11:32:16.579Z,4272
2016-03-31T11:33:16.737Z,5412
2016-03-31T11:34:16.647Z,5060
2016-03-31T11:35:16.712Z,4368
2016-03-31T11:36:16.698Z,4008
2016-03-31T11:37:16.748Z,3880
2016-03-31T11:38:16.767Z,4008
2016-03-31T11:39:16.816Z,4024
2016-03-31T11:40:16.835Z,3836
2016-03-31T11:41:16.853Z,3980
2016-03-31T11:42:16.903Z,3920
2016-03-31T11:43:16.951Z,3972
2016-03-31T11:44:16.986Z,3632
2016-03-31T11:45:17.051Z,3656
2016-03-31T11:46:17.039Z,3760
2016-03-31T11:47:17.056Z,4220
2016-03-31T11:48:17.434Z,5608
2016-03-31T11:49:17.139Z,4904
2016-03-31T11:50:17.158Z,4268
2016-03-31T11:51:17.223Z,5268
2016-03-31T11:52:17.258Z,5132
2016-03-31T11:53:17.292Z,4504
2016-03-31T11:54:17.325Z,4460
2016-03-31T11:55:17.328Z,3744
2016-03-31T11:56:17.361Z,3764
2016-03-31T11:57:17.380Z,4048
2016-03-31T11:58:17.430Z,4336
2016-03-31T11:59:17.448Z,4056
2016-03-31T12:00:17.498Z,5308
2016-03-31T12:01:17.516Z,5220
2016-03-31T12:02:17.535Z,4252
2016-03-31T12:03:17.694Z,3932
2016-03-31T12:04:17.447Z,3476
2016-03-31T12:05:17.652Z,3596
2016-03-31T12:06:17.671Z,4128
2016-03-31T12:07:17.720Z,3768
2016-03-31T12:08:17.738Z,4364
2016-03-31T12:09:17.803Z,4988
2016-03-31T12:10:17.806Z,4880
2016-03-31T12:11:17.824Z,4800
2016-03-31T12:12:17.859Z,4744
2016-03-31T12:13:17.737Z,4744
2016-03-31T12:14:17.910Z,4756
2016-03-31T12:15:17.960Z,4428
2016-03-31T12:16:17.822Z,4584
2016-03-31T12:17:18.012Z,4276
2016-03-31T12:18:17.827Z,4204
2016-03-31T12:19:18.081Z,3804
2016-03-31T12:20:18.114Z,4080
2016-03-31T12:21:18.148Z,4348
2016-03-31T12:22:18.182Z,4120
2016-03-31T12:23:18.217Z,6356
2016-03-31T12:24:18.250Z,6364
2016-03-31T12:25:18.253Z,5556
2016-03-31T12:26:18.302Z,5948
2016-03-31T12:27:18.320Z,5536
2016-03-31T12:28:18.354Z,5392
2016-03-31T12:29:18.388Z,4952
2016-03-31T12:30:18.422Z,4632
2016-03-31T12:31:18.456Z,4292
2016-03-31T12:32:18.490Z,4444
2016-03-31T12:33:18.446Z,4124
2016-03-31T12:34:18.542Z,4100
2016-03-31T12:35:18.576Z,3872
2016-03-31T12:36:18.594Z,4324
2016-03-31T12:37:18.644Z,4556
2016-03-31T12:38:18.663Z,4328
2016-03-31T12:39:18.712Z,4104
2016-03-31T12:40:18.746Z,3756
2016-03-31T12:41:18.014Z,3708
2016-03-31T12:42:18.673Z,3408
2016-03-31T12:43:18.817Z,3372
2016-03-31T12:44:18.851Z,3180
2016-03-31T12:45:18.900Z,2880
2016-03-31T12:46:18.903Z,2676
2016-03-31T12:47:18.936Z,2676
2016-03-31T12:48:18.986Z,2728
2016-03-31T12:49:19.067Z,2764
2016-03-31T12:50:19.039Z,3244
2016-03-31T12:51:19.089Z,3624
2016-03-31T12:52:19.106Z,4036
2016-03-31T12:53:19.140Z,3952
2016-03-31T12:54:19.174Z,3660
2016-03-31T12:55:19.192Z,3564
2016-03-31T12:56:19.242Z,3940
2016-03-31T12:57:19.276Z,3948
2016-03-31T12:58:19.294Z,4284
2016-03-31T12:59:19.172Z,4900
2016-03-31T13:00:19.346Z,4344
2016-03-31T13:01:19.381Z,3936
2016-03-31T13:02:19.414Z,3364
2016-03-31T13:03:19.573Z,3648
2016-03-31T13:04:19.482Z,4056
2016-03-31T13:05:19.502Z,3404
2016-03-31T13:06:19.582Z,3096
2016-03-31T13:07:19.585Z,3800
2016-03-31T13:08:19.619Z,3864
2016-03-31T13:09:19.621Z,5032
2016-03-31T13:10:19.654Z,5436
2016-03-31T13:11:19.688Z,3176
2016-03-31T13:12:19.723Z,2888
2016-03-31T13:13:19.598Z,2800
2016-03-31T13:14:19.834Z,2796
2016-03-31T13:15:19.821Z,4168
2016-03-31T13:16:19.856Z,4308
2016-03-31T13:17:19.874Z,4420
2016-03-31T13:18:19.971Z,4484
2016-03-31T13:19:19.770Z,4240
2016-03-31T13:20:19.960Z,4176
2016-03-31T13:21:20.009Z,4044
2016-03-31T13:22:20.028Z,4000
2016-03-31T13:23:20.078Z,4028
2016-03-31T13:24:20.096Z,4348
2016-03-31T13:25:20.115Z,4576
2016-03-31T13:26:20.148Z,4508
2016-03-31T13:27:20.183Z,4012
2016-03-31T13:28:20.231Z,3904
2016-03-31T13:29:20.234Z,3796
2016-03-31T13:30:20.300Z,3824
2016-03-31T13:31:20.302Z,3680
2016-03-31T13:32:20.324Z,3812
2016-03-31T13:33:20.746Z,3920
2016-03-31T13:34:20.339Z,3664
2016-03-31T13:35:20.370Z,3296
2016-03-31T13:36:20.369Z,2188
2016-03-31T13:37:20.390Z,1872
2016-03-31T13:38:20.417Z,2300
2016-03-31T13:39:20.460Z,2976
2016-03-31T13:40:20.456Z,3276
2016-03-31T13:41:20.467Z,3464
2016-03-31T13:42:20.498Z,3584
2016-03-31T13:43:20.545Z,3736
2016-03-31T13:44:20.560Z,3564
2016-03-31T13:45:20.576Z,3428